Time;durP1;ratioP1;P1;durP2;ratioP2;P2;SDS_P1;SDS_P2;PMS_P1;PMS_P2;Temp;Humidity;BMP_temperature;BMP_pressure;BME280_temperature;BME280_humidity;BME280_pressure;Samples;Min_cycle;Max_cycle;Signal;HPM_P1;HPM_P2
2022/11/17 00:02:19;;;;;;;1.70;1.40;;;;;;;;;;5062536;28;20540;-70
2022/11/17 00:05:03;;;;;;;3.67;1.93;;;;;;;;;;5054925;28;20503;-71
2022/11/17 00:07:30;;;;;;;2.40;1.93;;;;;;;;;;5025680;28;20794;-71
2022/11/17 00:09:57;;;;;;;3.20;2.00;;;;;;;;;;5030016;28;20464;-72
2022/11/17 00:15:09;;;;;;;2.53;1.40;;;;;;;;;;5064878;28;20477;-71
2022/11/17 00:17:35;;;;;;;1.80;1.40;;;;;;;;;;5046943;28;20464;-69
2022/11/17 00:22:47;;;;;;;1.57;1.37;;;;;;;;;;5052783;28;20975;-70
2022/11/17 00:25:14;;;;;;;1.83;1.50;;;;;;;;;;5047139;28;20421;-69
2022/11/17 00:27:41;;;;;;;2.00;1.63;;;;;;;;;;5068144;28;20449;-69
2022/11/17 00:30:08;;;;;;;2.80;1.80;;;;;;;;;;5067229;28;20512;-71
2022/11/17 00:35:20;;;;;;;3.13;1.90;;;;;;;;;;5052516;28;20944;-71
2022/11/17 00:40:31;;;;;;;2.20;1.70;;;;;;;;;;5066771;28;20811;-70
2022/11/17 00:42:59;;;;;;;2.30;1.60;;;;;;;;;;5052714;28;20758;-70
2022/11/17 00:45:26;;;;;;;2.30;1.70;;;;;;;;;;5069598;28;20498;-71
2022/11/17 00:47:52;;;;;;;3.33;1.90;;;;;;;;;;5068704;28;20492;-70
2022/11/17 00:50:19;;;;;;;2.27;1.77;;;;;;;;;;5069867;28;20432;-70
2022/11/17 00:52:45;;;;;;;3.13;1.80;;;;;;;;;;5051575;28;20495;-70
2022/11/17 00:55:12;;;;;;;3.30;2.10;;;;;;;;;;5069237;28;20515;-70
2022/11/17 00:57:38;;;;;;;2.53;2.00;;;;;;;;;;5050373;28;20816;-70
2022/11/17 01:00:05;;;;;;;2.03;1.77;;;;;;;;;;5069412;28;20436;-70
2022/11/17 01:02:32;;;;;;;2.30;1.80;;;;;;;;;;5069634;28;20421;-70
2022/11/17 01:04:59;;;;;;;2.97;2.10;;;;;;;;;;5059761;28;20441;-71
2022/11/17 01:07:26;;;;;;;2.13;1.80;;;;;;;;;;5050871;28;20440;-70
2022/11/17 01:09:53;;;;;;;2.40;1.80;;;;;;;;;;5069451;28;20432;-70
2022/11/17 01:12:19;;;;;;;2.50;2.10;;;;;;;;;;5069297;28;20494;-70
2022/11/17 01:14:46;;;;;;;2.53;2.07;;;;;;;;;;5058985;28;20480;-71
2022/11/17 01:17:12;;;;;;;2.00;1.80;;;;;;;;;;5031259;28;20477;-70
2022/11/17 01:19:39;;;;;;;2.67;1.90;;;;;;;;;;5031496;28;20452;-70
2022/11/17 01:22:06;;;;;;;2.23;1.90;;;;;;;;;;5031137;28;20479;-70
2022/11/17 01:24:50;;;;;;;2.20;2.00;;;;;;;;;;5062700;28;20530;-70
2022/11/17 01:27:16;;;;;;;2.23;2.03;;;;;;;;;;5051548;28;20515;-70
2022/11/17 01:29:43;;;;;;;2.70;2.27;;;;;;;;;;5069154;28;20503;-70
2022/11/17 01:32:10;;;;;;;2.93;1.83;;;;;;;;;;5057520;28;20428;-70
2022/11/17 01:34:37;;;;;;;2.73;2.00;;;;;;;;;;5069159;28;20460;-70
2022/11/17 01:37:21;;;;;;;3.87;2.00;;;;;;;;;;5054151;28;20868;-70
2022/11/17 01:39:48;;;;;;;2.40;1.87;;;;;;;;;;5067818;28;20532;-70
2022/11/17 01:42:16;;;;;;;2.70;2.20;;;;;;;;;;5069915;28;20417;-70
2022/11/17 01:44:43;;;;;;;2.13;1.80;;;;;;;;;;5072183;28;20540;-70
2022/11/17 01:47:16;;;;;;;2.23;2.00;;;;;;;;;;5073092;28;20429;-70
2022/11/17 01:49:42;;;;;;;3.33;2.33;;;;;;;;;;5072280;28;20475;-70
2022/11/17 01:52:09;;;;;;;3.47;2.40;;;;;;;;;;5073029;28;20417;-70
2022/11/17 01:54:36;;;;;;;2.30;2.10;;;;;;;;;;5073136;28;20547;-70
2022/11/17 01:57:11;;;;;;;2.57;2.20;;;;;;;;;;5061332;28;20449;-70
2022/11/17 01:59:41;;;;;;;2.17;1.93;;;;;;;;;;5042295;28;20449;-70
2022/11/17 02:02:08;;;;;;;2.40;2.20;;;;;;;;;;5048285;28;20458;-70
2022/11/17 02:04:39;;;;;;;2.30;2.00;;;;;;;;;;5038673;28;20921;-71
2022/11/17 02:07:14;;;;;;;3.37;2.10;;;;;;;;;;5052847;28;20457;-70
2022/11/17 02:09:41;;;;;;;3.43;2.23;;;;;;;;;;5055391;28;20438;-70
2022/11/17 02:12:07;;;;;;;2.60;2.13;;;;;;;;;;5051167;28;20493;-70
2022/11/17 02:14:36;;;;;;;2.47;2.10;;;;;;;;;;5038448;28;20476;-70
2022/11/17 02:17:03;;;;;;;2.30;2.10;;;;;;;;;;5049583;28;20568;-70
2022/11/17 02:19:38;;;;;;;2.20;2.00;;;;;;;;;;5036356;28;20439;-70
2022/11/17 02:22:25;;;;;;;3.33;1.90;;;;;;;;;;5034883;28;21073;-70
2022/11/17 02:24:51;;;;;;;2.70;2.37;;;;;;;;;;5031935;28;20920;-70
2022/11/17 02:27:37;;;;;;;3.20;1.97;;;;;;;;;;5035349;28;20538;-70
2022/11/17 02:30:09;;;;;;;3.27;2.10;;;;;;;;;;5051967;28;20448;-70
2022/11/17 02:32:45;;;;;;;2.73;2.30;;;;;;;;;;5070490;28;20435;-70
2022/11/17 02:35:18;;;;;;;2.63;2.10;;;;;;;;;;5052021;28;20483;-71
2022/11/17 02:37:48;;;;;;;2.60;2.10;;;;;;;;;;5070428;28;20456;-70
2022/11/17 02:40:22;;;;;;;3.03;1.70;;;;;;;;;;5065491;28;20799;-70
2022/11/17 02:45:50;;;;;;;2.67;2.07;;;;;;;;;;5058017;28;20448;-70
2022/11/17 02:48:21;;;;;;;2.10;1.90;;;;;;;;;;5034477;28;20470;-70
2022/11/17 02:50:50;;;;;;;2.40;1.70;;;;;;;;;;5042470;28;20452;-70
2022/11/17 02:53:17;;;;;;;2.90;1.87;;;;;;;;;;5048614;28;20523;-70
2022/11/17 02:55:50;;;;;;;2.43;1.80;;;;;;;;;;5036427;28;21074;-70
2022/11/17 02:58:17;;;;;;;2.70;2.17;;;;;;;;;;5068761;28;20527;-70
2022/11/17 03:01:03;;;;;;;2.43;1.90;;;;;;;;;;5061619;28;20484;-70
2022/11/17 03:03:36;;;;;;;1.90;1.70;;;;;;;;;;5058489;28;20487;-71
2022/11/17 03:06:12;;;;;;;2.70;2.07;;;;;;;;;;5068517;28;20455;-70
2022/11/17 03:08:49;;;;;;;2.73;2.27;;;;;;;;;;5033938;28;20436;-70
2022/11/17 03:11:15;;;;;;;2.30;2.00;;;;;;;;;;5052065;28;20456;-70
2022/11/17 03:13:46;;;;;;;1.83;1.70;;;;;;;;;;5051234;28;20447;-70
2022/11/17 03:16:12;;;;;;;2.20;2.00;;;;;;;;;;5044332;28;20852;-70
2022/11/17 03:18:43;;;;;;;2.97;2.03;;;;;;;;;;5063911;28;20459;-70
2022/11/17 03:21:13;;;;;;;2.90;2.23;;;;;;;;;;5045101;28;20461;-70
2022/11/17 03:23:45;;;;;;;2.30;1.97;;;;;;;;;;5064456;28;20450;-70
2022/11/17 03:26:12;;;;;;;2.63;1.90;;;;;;;;;;5060269;28;20450;-70
2022/11/17 03:28:40;;;;;;;2.30;2.10;;;;;;;;;;5032671;28;20787;-71
2022/11/17 03:31:08;;;;;;;2.97;2.30;;;;;;;;;;5050523;28;20343;-71
2022/11/17 03:33:35;;;;;;;1.90;1.80;;;;;;;;;;5045917;28;20929;-71
2022/11/17 03:36:04;;;;;;;2.80;2.20;;;;;;;;;;5052025;28;20839;-71
2022/11/17 03:38:31;;;;;;;2.43;1.77;;;;;;;;;;5048843;28;20528;-71
2022/11/17 03:40:59;;;;;;;2.43;1.93;;;;;;;;;;5038397;28;20987;-71
2022/11/17 03:43:25;;;;;;;2.10;1.90;;;;;;;;;;5043533;28;20469;-71
2022/11/17 03:45:54;;;;;;;2.80;1.63;;;;;;;;;;5042498;28;20453;-71
2022/11/17 03:48:27;;;;;;;2.13;1.83;;;;;;;;;;5053194;28;20516;-71
2022/11/17 03:50:56;;;;;;;2.27;1.87;;;;;;;;;;5032693;28;20453;-71
2022/11/17 03:53:23;;;;;;;2.50;1.83;;;;;;;;;;5035229;28;20512;-71
2022/11/17 03:55:52;;;;;;;3.27;2.20;;;;;;;;;;5036379;28;20512;-71
2022/11/17 03:58:19;;;;;;;3.47;2.30;;;;;;;;;;5070651;28;20438;-71
2022/11/17 04:00:47;;;;;;;2.43;2.00;;;;;;;;;;5048576;28;20514;-71
2022/11/17 04:03:13;;;;;;;3.07;2.10;;;;;;;;;;5050088;28;20484;-71
2022/11/17 04:05:40;;;;;;;2.70;2.20;;;;;;;;;;5030297;28;20537;-71
2022/11/17 04:08:07;;;;;;;3.63;2.20;;;;;;;;;;5049608;28;20453;-71
2022/11/17 04:15:55;;;;;;;3.57;2.57;;;;;;;;;;5049229;28;20495;-71
2022/11/17 04:16:05;;;;;;;2.73;2.23;;;;;;;;;;5040059;28;20482;-71
2022/11/17 04:18:32;;;;;;;3.47;2.20;;;;;;;;;;5055788;28;20437;-71
2022/11/17 04:20:59;;;;;;;3.83;2.40;;;;;;;;;;5046999;28;20463;-71
2022/11/17 04:23:26;;;;;;;2.73;2.07;;;;;;;;;;5049666;28;20451;-71
2022/11/17 04:28:41;;;;;;;2.40;2.13;;;;;;;;;;5037589;28;20551;-71
2022/11/17 04:31:10;;;;;;;2.47;2.03;;;;;;;;;;5049609;28;20469;-71
2022/11/17 04:33:41;;;;;;;5.73;2.30;;;;;;;;;;5064629;28;20448;-70
2022/11/17 04:36:08;;;;;;;3.13;2.40;;;;;;;;;;5058117;28;20573;-71
2022/11/17 04:38:34;;;;;;;3.13;2.40;;;;;;;;;;5038034;28;20430;-71
2022/11/17 04:43:47;;;;;;;4.60;2.83;;;;;;;;;;5069615;28;20519;-71
2022/11/17 04:46:14;;;;;;;2.83;2.53;;;;;;;;;;5069545;28;20520;-71
2022/11/17 04:48:43;;;;;;;3.57;2.40;;;;;;;;;;5068577;28;20437;-71
2022/11/17 04:51:10;;;;;;;2.80;2.40;;;;;;;;;;5037415;28;20469;-71
2022/11/17 04:53:36;;;;;;;4.13;2.90;;;;;;;;;;5031151;28;20546;-71
2022/11/17 04:56:03;;;;;;;3.40;2.60;;;;;;;;;;5029907;28;21343;-71
2022/11/17 04:58:30;;;;;;;3.23;2.40;;;;;;;;;;5037422;28;20468;-71
2022/11/17 05:01:11;;;;;;;3.97;2.73;;;;;;;;;;5043836;28;20482;-71
2022/11/17 05:03:44;;;;;;;4.77;3.33;;;;;;;;;;5041022;28;20545;-71
2022/11/17 05:06:21;;;;;;;5.30;3.70;;;;;;;;;;5028973;28;20781;-71
2022/11/17 05:08:48;;;;;;;3.70;2.90;;;;;;;;;;5043591;28;20944;-71
2022/11/17 05:14:01;;;;;;;5.67;3.73;;;;;;;;;;5043073;28;20806;-70
2022/11/17 05:19:32;;;;;;;3.23;2.87;;;;;;;;;;5039698;28;20851;-68
2022/11/17 05:21:59;;;;;;;3.73;2.80;;;;;;;;;;5044368;28;20560;-71
2022/11/17 05:24:26;;;;;;;3.63;2.60;;;;;;;;;;5028323;28;20487;-72
2022/11/17 05:26:54;;;;;;;2.70;2.50;;;;;;;;;;5027056;28;20449;-72
2022/11/17 05:29:22;;;;;;;4.40;2.87;;;;;;;;;;5045983;28;20434;-73
2022/11/17 05:31:49;;;;;;;3.30;2.60;;;;;;;;;;5023301;28;21032;-72
2022/11/17 05:34:16;;;;;;;2.80;2.50;;;;;;;;;;5027647;28;20530;-71
2022/11/17 05:36:43;;;;;;;4.00;2.60;;;;;;;;;;5037617;28;20788;-71
2022/11/17 05:39:09;;;;;;;4.00;2.70;;;;;;;;;;5042835;28;20448;-71
2022/11/17 05:41:36;;;;;;;3.53;2.77;;;;;;;;;;5037898;28;20484;-71
2022/11/17 05:44:03;;;;;;;3.67;2.43;;;;;;;;;;5031099;28;20419;-71
2022/11/17 05:46:47;;;;;;;2.53;2.10;;;;;;;;;;5037697;28;20439;-71
2022/11/17 05:49:14;;;;;;;5.37;2.83;;;;;;;;;;5042524;28;20450;-71
2022/11/17 05:51:58;;;;;;;2.50;2.20;;;;;;;;;;5049264;28;20442;-69
2022/11/17 05:54:25;;;;;;;4.07;2.83;;;;;;;;;;5035751;28;20980;-72
2022/11/17 05:57:11;;;;;;;4.43;2.70;;;;;;;;;;5049411;28;20444;-69
2022/11/17 05:59:39;;;;;;;4.67;2.70;;;;;;;;;;5044570;28;20475;-71
2022/11/17 06:02:29;;;;;;;3.93;2.30;;;;;;;;;;5040542;28;20509;-73
2022/11/17 06:04:56;;;;;;;3.90;2.90;;;;;;;;;;5024070;28;20431;-71
2022/11/17 06:07:40;;;;;;;3.23;2.47;;;;;;;;;;5036482;28;20422;-76
2022/11/17 06:10:09;;;;;;;3.47;2.70;;;;;;;;;;5041773;28;20510;-74
2022/11/17 06:12:38;;;;;;;3.37;2.77;;;;;;;;;;5029294;28;20541;-71
2022/11/17 06:15:05;;;;;;;4.47;3.00;;;;;;;;;;5043805;28;20501;-70
2022/11/17 06:17:33;;;;;;;4.17;3.20;;;;;;;;;;5040540;28;21003;-72
2022/11/17 06:20:02;;;;;;;4.53;3.17;;;;;;;;;;5019880;28;20499;-72
2022/11/17 06:22:28;;;;;;;4.43;3.00;;;;;;;;;;5020991;28;21062;-72
2022/11/17 06:24:55;;;;;;;3.30;2.60;;;;;;;;;;5034028;28;21021;-73
2022/11/17 06:27:22;;;;;;;3.90;2.73;;;;;;;;;;5032281;28;20453;-68
2022/11/17 06:29:49;;;;;;;4.00;2.87;;;;;;;;;;5019810;28;20434;-69
2022/11/17 06:32:15;;;;;;;3.57;2.70;;;;;;;;;;5030158;28;20452;-69
2022/11/17 06:34:42;;;;;;;3.37;2.70;;;;;;;;;;5030361;28;20458;-69
2022/11/17 06:37:10;;;;;;;4.03;2.87;;;;;;;;;;5030279;28;20480;-69
2022/11/17 06:39:36;;;;;;;2.97;2.57;;;;;;;;;;5031507;28;20506;-71
2022/11/17 06:42:03;;;;;;;4.07;2.97;;;;;;;;;;5029867;28;21350;-71
2022/11/17 06:44:30;;;;;;;3.60;2.90;;;;;;;;;;5029949;28;20462;-72
2022/11/17 06:46:56;;;;;;;4.73;2.63;;;;;;;;;;5031298;28;20438;-71
2022/11/17 06:49:23;;;;;;;5.23;2.90;;;;;;;;;;5046017;28;20596;-69
2022/11/17 06:51:50;;;;;;;3.50;2.50;;;;;;;;;;5052029;28;20524;-70
2022/11/17 06:54:17;;;;;;;3.00;2.47;;;;;;;;;;5000531;28;1190953;-70
2022/11/17 06:56:45;;;;;;;2.87;2.60;;;;;;;;;;5041194;28;20950;-70
2022/11/17 06:59:14;;;;;;;3.27;2.63;;;;;;;;;;5025713;28;20442;-69
2022/11/17 07:01:42;;;;;;;3.07;2.77;;;;;;;;;;5029969;28;20430;-70
2022/11/17 07:04:26;;;;;;;3.30;2.53;;;;;;;;;;5048009;28;20424;-69
2022/11/17 07:06:53;;;;;;;3.27;2.43;;;;;;;;;;5050417;28;20464;-70
2022/11/17 07:09:19;;;;;;;3.13;2.70;;;;;;;;;;5049566;28;20441;-71
2022/11/17 07:11:46;;;;;;;3.47;2.57;;;;;;;;;;5042459;28;20543;-70
2022/11/17 07:14:15;;;;;;;3.00;2.70;;;;;;;;;;5035674;28;21016;-71
2022/11/17 07:16:59;;;;;;;3.37;2.80;;;;;;;;;;5027940;28;20481;-73
2022/11/17 07:19:27;;;;;;;3.67;2.93;;;;;;;;;;5047791;28;20447;-72
2022/11/17 07:22:11;;;;;;;3.90;2.77;;;;;;;;;;5033275;28;20436;-72
2022/11/17 07:24:38;;;;;;;3.17;2.20;;;;;;;;;;5038778;28;20992;-71
2022/11/17 07:27:05;;;;;;;4.13;2.60;;;;;;;;;;5048256;28;20442;-70
2022/11/17 07:29:32;;;;;;;3.80;2.40;;;;;;;;;;5014161;28;20444;-70
2022/11/17 07:31:59;;;;;;;3.43;2.70;;;;;;;;;;5046919;28;20861;-69
2022/11/17 07:34:25;;;;;;;2.40;2.20;;;;;;;;;;5039034;28;20458;-70
2022/11/17 07:36:52;;;;;;;3.60;2.60;;;;;;;;;;5028579;28;20480;-69
2022/11/17 07:39:19;;;;;;;2.80;2.40;;;;;;;;;;5045188;28;21045;-71
2022/11/17 07:42:03;;;;;;;3.30;2.50;;;;;;;;;;5043739;28;20424;-69
2022/11/17 07:44:29;;;;;;;2.57;2.20;;;;;;;;;;5047892;28;20477;-69
2022/11/17 07:47:13;;;;;;;3.40;2.70;;;;;;;;;;5032908;28;20767;-71
2022/11/17 07:49:40;;;;;;;2.87;2.47;;;;;;;;;;5048739;28;20492;-70
2022/11/17 07:52:07;;;;;;;2.87;2.57;;;;;;;;;;5046713;28;20793;-70
2022/11/17 07:54:33;;;;;;;3.13;2.47;;;;;;;;;;5045712;28;20808;-69
2022/11/17 07:57:00;;;;;;;2.97;2.40;;;;;;;;;;5043761;28;20478;-70
2022/11/17 07:59:27;;;;;;;3.73;2.53;;;;;;;;;;5049691;28;20501;-71
2022/11/17 08:01:55;;;;;;;3.60;2.53;;;;;;;;;;5059481;28;20954;-70
2022/11/17 08:04:22;;;;;;;3.13;2.57;;;;;;;;;;5058054;28;20448;-69
2022/11/17 08:06:48;;;;;;;3.00;2.50;;;;;;;;;;5050293;28;20432;-70
2022/11/17 08:09:15;;;;;;;2.80;2.40;;;;;;;;;;5067532;28;20529;-70
2022/11/17 08:11:43;;;;;;;4.70;2.70;;;;;;;;;;5068721;28;21010;-69
2022/11/17 08:14:09;;;;;;;3.73;2.40;;;;;;;;;;5049983;28;20444;-69
2022/11/17 08:16:36;;;;;;;3.83;2.83;;;;;;;;;;5068411;28;21089;-69
2022/11/17 08:19:04;;;;;;;6.13;2.80;;;;;;;;;;5067917;28;20432;-71
2022/11/17 08:21:31;;;;;;;2.97;2.60;;;;;;;;;;5068366;28;20432;-69
2022/11/17 08:23:59;;;;;;;3.73;2.63;;;;;;;;;;5045829;28;20433;-70
2022/11/17 08:26:27;;;;;;;2.80;2.47;;;;;;;;;;5058237;28;20421;-70
2022/11/17 08:28:55;;;;;;;3.57;2.87;;;;;;;;;;5047715;28;20448;-70
2022/11/17 08:31:24;;;;;;;6.43;2.20;;;;;;;;;;5050307;28;20436;-68
2022/11/17 08:33:51;;;;;;;3.50;2.60;;;;;;;;;;5067978;28;20511;-68
2022/11/17 08:36:18;;;;;;;3.03;2.60;;;;;;;;;;5070140;28;20471;-68
2022/11/17 08:38:44;;;;;;;4.60;2.77;;;;;;;;;;5069087;28;20805;-68
2022/11/17 08:41:11;;;;;;;2.97;2.57;;;;;;;;;;5070453;28;20851;-74
2022/11/17 08:43:40;;;;;;;2.80;2.50;;;;;;;;;;5069684;28;20417;-69
2022/11/17 08:46:09;;;;;;;4.77;2.90;;;;;;;;;;5069647;28;20441;-69
2022/11/17 08:48:36;;;;;;;5.00;2.93;;;;;;;;;;5052622;28;20429;-69
2022/11/17 08:51:07;;;;;;;3.13;2.83;;;;;;;;;;5052040;28;21002;-69
2022/11/17 08:53:33;;;;;;;4.50;3.27;;;;;;;;;;5066490;28;20579;-69
2022/11/17 08:56:00;;;;;;;3.53;3.23;;;;;;;;;;5069651;28;20452;-69
2022/11/17 08:58:27;;;;;;;4.57;3.53;;;;;;;;;;5069410;28;20443;-69
2022/11/17 09:00:53;;;;;;;4.30;3.00;;;;;;;;;;5069909;28;20932;-69
2022/11/17 09:03:22;;;;;;;4.27;3.50;;;;;;;;;;5069832;28;20519;-69
2022/11/17 09:05:49;;;;;;;5.40;3.23;;;;;;;;;;5052302;28;20428;-69
2022/11/17 09:08:15;;;;;;;5.87;3.50;;;;;;;;;;5035694;28;20428;-69
2022/11/17 09:11:06;;;;;;;5.27;3.10;;;;;;;;;;5069808;28;20551;-69
2022/11/17 09:13:32;;;;;;;5.03;3.27;;;;;;;;;;5051675;28;20548;-69
2022/11/17 09:16:03;;;;;;;3.80;3.03;;;;;;;;;;5070075;28;20465;-69
2022/11/17 09:18:29;;;;;;;3.23;2.93;;;;;;;;;;5069438;28;20428;-69
2022/11/17 09:21:00;;;;;;;3.67;3.00;;;;;;;;;;5069775;28;20467;-69
2022/11/17 09:23:27;;;;;;;4.03;3.00;;;;;;;;;;5051387;28;20459;-69
2022/11/17 09:25:53;;;;;;;3.70;3.20;;;;;;;;;;5051889;28;20464;-69
2022/11/17 09:28:22;;;;;;;3.70;3.27;;;;;;;;;;5051817;28;20490;-69
2022/11/17 09:30:49;;;;;;;3.97;3.30;;;;;;;;;;5069198;28;20505;-69
2022/11/17 09:33:16;;;;;;;4.30;3.40;;;;;;;;;;5069541;28;20424;-69
2022/11/17 09:35:42;;;;;;;3.93;3.40;;;;;;;;;;5051517;28;20467;-69
2022/11/17 09:38:09;;;;;;;4.57;3.47;;;;;;;;;;5069158;28;20788;-69
2022/11/17 09:40:37;;;;;;;4.40;3.80;;;;;;;;;;5069261;28;20422;-69
2022/11/17 09:43:24;;;;;;;4.50;3.60;;;;;;;;;;5035412;28;20428;-69
2022/11/17 09:45:51;;;;;;;5.93;3.63;;;;;;;;;;5069394;28;20804;-69
2022/11/17 09:48:19;;;;;;;3.97;3.50;;;;;;;;;;5051506;28;20409;-68
2022/11/17 09:51:07;;;;;;;6.10;3.30;;;;;;;;;;5054197;28;20442;-68
2022/11/17 09:53:49;;;;;;;4.60;3.73;;;;;;;;;;5051311;28;20561;-68
2022/11/17 09:56:16;;;;;;;5.43;3.47;;;;;;;;;;5051458;28;20480;-69
2022/11/17 09:58:50;;;;;;;7.63;4.63;;;;;;;;;;5051366;28;20464;-69
2022/11/17 10:01:17;;;;;;;5.77;4.30;;;;;;;;;;5051376;28;20511;-68
2022/11/17 10:03:45;;;;;;;4.43;4.03;;;;;;;;;;5072005;28;20513;-68
2022/11/17 10:06:14;;;;;;;4.53;3.90;;;;;;;;;;5039267;28;20788;-68
2022/11/17 10:09:01;;;;;;;4.47;3.47;;;;;;;;;;5054877;28;21349;-68
2022/11/17 10:11:31;;;;;;;4.60;4.03;;;;;;;;;;5055336;28;20432;-68
2022/11/17 10:14:00;;;;;;;5.53;4.53;;;;;;;;;;5072791;28;20429;-68
2022/11/17 10:16:27;;;;;;;4.87;3.60;;;;;;;;;;5054830;28;20510;-69
2022/11/17 10:18:53;;;;;;;5.30;4.07;;;;;;;;;;5055267;28;20463;-69
2022/11/17 10:21:20;;;;;;;4.43;3.90;;;;;;;;;;5038927;28;20826;-69
2022/11/17 10:23:50;;;;;;;5.00;3.90;;;;;;;;;;5072199;28;20424;-69
2022/11/17 10:26:17;;;;;;;5.50;3.77;;;;;;;;;;5055115;28;20441;-69
2022/11/17 10:28:44;;;;;;;4.37;3.73;;;;;;;;;;5054861;28;20432;-69
2022/11/17 10:31:14;;;;;;;5.10;3.80;;;;;;;;;;5072593;28;20491;-68
2022/11/17 10:33:46;;;;;;;6.20;4.33;;;;;;;;;;5055231;28;20432;-68
2022/11/17 10:36:17;;;;;;;4.70;4.20;;;;;;;;;;5054931;28;20986;-68
2022/11/17 10:38:45;;;;;;;6.90;3.93;;;;;;;;;;5037385;28;20925;-68
2022/11/17 10:41:13;;;;;;;6.73;3.93;;;;;;;;;;5054812;28;20856;-68
2022/11/17 10:43:41;;;;;;;4.77;4.27;;;;;;;;;;5054568;28;20189;-68
2022/11/17 10:46:15;;;;;;;4.47;4.03;;;;;;;;;;5038133;28;20198;-68
2022/11/17 10:49:02;;;;;;;4.53;3.97;;;;;;;;;;5054981;28;20458;-68
2022/11/17 10:51:47;;;;;;;4.20;3.73;;;;;;;;;;5057569;28;20180;-69
2022/11/17 10:54:13;;;;;;;4.87;3.57;;;;;;;;;;5054118;28;20785;-69
2022/11/17 10:56:44;;;;;;;3.87;3.30;;;;;;;;;;5072068;28;20470;-69
2022/11/17 10:59:11;;;;;;;4.10;3.70;;;;;;;;;;5054222;28;20436;-68
2022/11/17 11:01:38;;;;;;;6.23;3.83;;;;;;;;;;5072304;28;20452;-68
2022/11/17 11:04:05;;;;;;;4.80;4.10;;;;;;;;;;5054422;28;20548;-68
2022/11/17 11:06:32;;;;;;;7.13;4.83;;;;;;;;;;5054934;28;20194;-68
2022/11/17 11:09:04;;;;;;;5.83;4.23;;;;;;;;;;5071991;28;20834;-68
2022/11/17 11:11:39;;;;;;;4.63;3.63;;;;;;;;;;5054493;28;20463;-68
2022/11/17 11:14:11;;;;;;;6.70;3.97;;;;;;;;;;5053909;28;20419;-68
2022/11/17 11:16:55;;;;;;;5.07;3.90;;;;;;;;;;5072158;28;20510;-68
2022/11/17 11:19:22;;;;;;;5.17;4.03;;;;;;;;;;5054060;28;20456;-68
2022/11/17 11:21:52;;;;;;;4.97;3.73;;;;;;;;;;5054182;28;20927;-68
2022/11/17 11:24:22;;;;;;;5.33;3.40;;;;;;;;;;5053939;28;20428;-68
2022/11/17 11:26:58;;;;;;;3.50;3.20;;;;;;;;;;5053928;28;20195;-68
2022/11/17 11:29:27;;;;;;;4.07;3.60;;;;;;;;;;5037053;28;20194;-68
2022/11/17 11:32:00;;;;;;;4.00;3.23;;;;;;;;;;5053337;28;20233;-68
2022/11/17 11:34:27;;;;;;;4.83;3.60;;;;;;;;;;5071232;28;20193;-68
2022/11/17 11:36:59;;;;;;;4.53;3.80;;;;;;;;;;5053729;28;20229;-69
2022/11/17 11:39:27;;;;;;;5.50;4.07;;;;;;;;;;5053579;28;20252;-68
2022/11/17 11:42:05;;;;;;;5.17;3.77;;;;;;;;;;5071351;28;20217;-68
2022/11/17 11:44:36;;;;;;;4.70;3.93;;;;;;;;;;5054076;28;20432;-68
2022/11/17 11:47:10;;;;;;;5.93;4.27;;;;;;;;;;5071260;28;20265;-68
2022/11/17 11:49:39;;;;;;;5.50;4.27;;;;;;;;;;5053210;28;20190;-69
2022/11/17 11:52:09;;;;;;;6.47;4.10;;;;;;;;;;5070938;28;20490;-68
2022/11/17 11:54:38;;;;;;;6.10;4.47;;;;;;;;;;5052891;28;20464;-69
2022/11/17 11:57:08;;;;;;;6.40;4.23;;;;;;;;;;5049570;28;20483;-69
2022/11/17 11:59:44;;;;;;;7.27;4.10;;;;;;;;;;5016649;28;20480;-68
2022/11/17 12:02:14;;;;;;;5.40;4.07;;;;;;;;;;5050933;28;20522;-68
2022/11/17 12:04:51;;;;;;;5.57;4.23;;;;;;;;;;5033193;28;20432;-69
2022/11/17 12:07:21;;;;;;;6.20;4.30;;;;;;;;;;5016961;28;20433;-69
2022/11/17 12:09:56;;;;;;;5.53;3.90;;;;;;;;;;5050574;28;20190;-69
2022/11/17 12:12:30;;;;;;;5.77;4.10;;;;;;;;;;5032766;28;20487;-68
2022/11/17 12:15:07;;;;;;;5.43;4.23;;;;;;;;;;5016519;28;20187;-69
2022/11/17 12:17:34;;;;;;;6.33;4.03;;;;;;;;;;5033027;28;20468;-69
2022/11/17 12:20:01;;;;;;;6.67;4.30;;;;;;;;;;5032902;28;20513;-69
2022/11/17 12:22:36;;;;;;;5.90;4.20;;;;;;;;;;5018820;28;20916;-69
2022/11/17 12:25:23;;;;;;;6.13;4.27;;;;;;;;;;5049857;28;20433;-69
2022/11/17 12:27:51;;;;;;;5.90;4.50;;;;;;;;;;5050355;28;21073;-69
2022/11/17 12:30:30;;;;;;;5.93;4.53;;;;;;;;;;5050013;28;20425;-69
2022/11/17 12:32:57;;;;;;;6.83;4.40;;;;;;;;;;5050407;28;20186;-69
2022/11/17 12:35:23;;;;;;;5.70;4.30;;;;;;;;;;5049997;28;20641;-69
2022/11/17 12:38:09;;;;;;;5.60;4.57;;;;;;;;;;5032254;28;20503;-69
2022/11/17 12:40:38;;;;;;;5.33;4.40;;;;;;;;;;5049905;28;20942;-69
2022/11/17 12:43:14;;;;;;;7.43;4.00;;;;;;;;;;5049937;28;20261;-69
2022/11/17 12:45:53;;;;;;;6.37;4.40;;;;;;;;;;5050410;28;20263;-69
2022/11/17 12:48:23;;;;;;;6.33;4.90;;;;;;;;;;5032360;28;20429;-69
2022/11/17 12:51:14;;;;;;;5.83;4.40;;;;;;;;;;5049759;28;20436;-69
2022/11/17 12:53:59;;;;;;;7.67;4.73;;;;;;;;;;5032315;28;20555;-69
2022/11/17 12:56:26;;;;;;;6.63;5.23;;;;;;;;;;5057841;28;20459;-69
2022/11/17 12:59:02;;;;;;;11.10;5.87;;;;;;;;;;5052219;28;20429;-69
2022/11/17 13:01:34;;;;;;;12.70;6.67;;;;;;;;;;5069397;28;20818;-68
2022/11/17 13:04:07;;;;;;;9.17;5.60;;;;;;;;;;5052612;28;20478;-68
2022/11/17 13:06:34;;;;;;;12.20;6.13;;;;;;;;;;5069893;28;20766;-68
2022/11/17 13:09:06;;;;;;;8.70;5.67;;;;;;;;;;5069349;28;20542;-68
2022/11/17 13:11:33;;;;;;;7.33;5.53;;;;;;;;;;5051328;28;20436;-68
2022/11/17 13:14:07;;;;;;;10.10;5.63;;;;;;;;;;5052057;28;20417;-69
2022/11/17 13:16:34;;;;;;;11.77;5.60;;;;;;;;;;5052092;28;20466;-69
2022/11/17 13:19:00;;;;;;;13.30;5.77;;;;;;;;;;5069686;28;20451;-69
2022/11/17 13:21:28;;;;;;;16.03;5.73;;;;;;;;;;5069374;28;20440;-68
2022/11/17 13:23:55;;;;;;;16.67;6.30;;;;;;;;;;5051917;28;20443;-68
2022/11/17 13:26:22;;;;;;;48.13;16.10;;;;;;;;;;5069416;28;21304;-68
2022/11/17 13:29:04;;;;;;;10.20;5.63;;;;;;;;;;5069476;28;20456;-68
2022/11/17 13:31:31;;;;;;;12.37;7.33;;;;;;;;;;5051902;28;20865;-69
2022/11/17 13:34:05;;;;;;;17.80;10.43;;;;;;;;;;5051780;28;20464;-69
2022/11/17 13:36:32;;;;;;;15.17;8.83;;;;;;;;;;5069053;28;20432;-69
2022/11/17 13:39:02;;;;;;;11.77;6.23;;;;;;;;;;5051038;28;20479;-69
2022/11/17 13:41:31;;;;;;;8.60;4.93;;;;;;;;;;5069317;28;20523;-68
2022/11/17 13:43:57;;;;;;;11.90;5.10;;;;;;;;;;5034449;28;20433;-69
2022/11/17 13:46:24;;;;;;;7.67;4.43;;;;;;;;;;5051205;28;20432;-69
2022/11/17 13:48:51;;;;;;;7.90;4.17;;;;;;;;;;5052070;28;20511;-68
2022/11/17 13:51:21;;;;;;;25.83;10.60;;;;;;;;;;5051852;28;20951;-68
2022/11/17 13:53:51;;;;;;;16.07;7.00;;;;;;;;;;5051369;28;20451;-68
2022/11/17 13:56:20;;;;;;;7.00;4.50;;;;;;;;;;5061793;28;20475;-68
2022/11/17 13:58:47;;;;;;;10.03;4.70;;;;;;;;;;5048938;28;20436;-68
2022/11/17 14:01:14;;;;;;;8.37;4.53;;;;;;;;;;5031450;28;20934;-68
2022/11/17 14:03:45;;;;;;;7.13;4.20;;;;;;;;;;5031729;28;20453;-68
2022/11/17 14:06:29;;;;;;;12.07;5.50;;;;;;;;;;5048833;28;20405;-68
2022/11/17 14:09:02;;;;;;;7.93;4.40;;;;;;;;;;5046140;28;20464;-69
2022/11/17 14:11:29;;;;;;;6.43;4.13;;;;;;;;;;5030892;28;20947;-68
2022/11/17 14:13:57;;;;;;;6.80;4.23;;;;;;;;;;5030232;28;20468;-68
2022/11/17 14:16:25;;;;;;;5.80;3.70;;;;;;;;;;5016823;28;20467;-68
2022/11/17 14:18:56;;;;;;;5.73;3.97;;;;;;;;;;5021637;28;20438;-68
2022/11/17 14:21:22;;;;;;;9.37;4.13;;;;;;;;;;5024592;28;20467;-68
2022/11/17 14:23:49;;;;;;;5.63;3.90;;;;;;;;;;5043696;28;20444;-68
2022/11/17 14:26:22;;;;;;;5.57;3.50;;;;;;;;;;5047878;28;20491;-69
2022/11/17 14:28:49;;;;;;;6.20;4.17;;;;;;;;;;5033397;28;20872;-68
2022/11/17 14:31:16;;;;;;;7.23;4.53;;;;;;;;;;5018902;28;20957;-69
2022/11/17 14:33:43;;;;;;;8.53;5.10;;;;;;;;;;5033282;28;20433;-68
2022/11/17 14:36:13;;;;;;;11.93;6.50;;;;;;;;;;5050800;28;20441;-68
2022/11/17 14:38:40;;;;;;;14.67;8.17;;;;;;;;;;5032832;28;20986;-68
2022/11/17 14:41:07;;;;;;;12.30;6.13;;;;;;;;;;5032589;28;20475;-68
2022/11/17 14:43:34;;;;;;;8.90;4.40;;;;;;;;;;5050185;28;20468;-68
2022/11/17 14:46:18;;;;;;;11.27;5.23;;;;;;;;;;5047421;28;20420;-68
2022/11/17 14:48:45;;;;;;;13.20;6.50;;;;;;;;;;5019415;28;20455;-68
2022/11/17 14:51:12;;;;;;;14.90;7.70;;;;;;;;;;5030952;28;20437;-68
2022/11/17 14:53:40;;;;;;;12.60;6.67;;;;;;;;;;5032468;28;20434;-68
2022/11/17 14:56:07;;;;;;;9.00;5.90;;;;;;;;;;5052237;28;20430;-68
2022/11/17 14:58:34;;;;;;;7.00;4.97;;;;;;;;;;5035691;28;20480;-68
2022/11/17 15:01:08;;;;;;;8.17;4.97;;;;;;;;;;5054023;28;20470;-68
2022/11/17 15:03:35;;;;;;;13.60;4.90;;;;;;;;;;5054014;28;20496;-68
2022/11/17 15:06:05;;;;;;;10.07;5.23;;;;;;;;;;5054041;28;20489;-68
2022/11/17 15:08:32;;;;;;;12.10;4.87;;;;;;;;;;5027178;28;21125;-68
2022/11/17 15:10:59;;;;;;;34.40;7.90;;;;;;;;;;5053242;28;20986;-68
2022/11/17 15:13:26;;;;;;;16.57;8.20;;;;;;;;;;5053315;28;20524;-68
2022/11/17 15:16:02;;;;;;;14.43;6.97;;;;;;;;;;5053542;28;20889;-68
2022/11/17 15:18:30;;;;;;;10.50;5.90;;;;;;;;;;5050456;28;20844;-68
2022/11/17 15:21:01;;;;;;;32.00;18.03;;;;;;;;;;5015981;28;20481;-68
2022/11/17 15:23:28;;;;;;;32.03;15.37;;;;;;;;;;5045374;28;20524;-68
2022/11/17 15:25:55;;;;;;;29.90;14.93;;;;;;;;;;5053394;28;20512;-68